sensor_id;sensor_type;location;lat;lon;timestamp;temperature;humidity
28087;DHT22;15392;48.912;8.380;2022-08-01T00:00:36;29.30;30.60
28087;DHT22;15392;48.912;8.380;2022-08-01T00:03:02;29.30;30.60
28087;DHT22;15392;48.912;8.380;2022-08-01T00:05:28;29.30;30.60
28087;DHT22;15392;48.912;8.380;2022-08-01T00:07:54;29.30;30.60
28087;DHT22;15392;48.912;8.380;2022-08-01T00:10:20;29.30;30.70
28087;DHT22;15392;48.912;8.380;2022-08-01T00:12:46;29.20;30.70
28087;DHT22;15392;48.912;8.380;2022-08-01T00:15:15;29.20;30.70
28087;DHT22;15392;48.912;8.380;2022-08-01T00:17:42;29.20;30.80
28087;DHT22;15392;48.912;8.380;2022-08-01T00:20:10;29.20;30.80
28087;DHT22;15392;48.912;8.380;2022-08-01T00:22:37;29.20;30.90
28087;DHT22;15392;48.912;8.380;2022-08-01T00:25:04;29.10;30.90
28087;DHT22;15392;48.912;8.380;2022-08-01T00:27:31;29.10;31.00
28087;DHT22;15392;48.912;8.380;2022-08-01T00:29:57;29.00;31.00
28087;DHT22;15392;48.912;8.380;2022-08-01T00:32:23;29.00;31.00
28087;DHT22;15392;48.912;8.380;2022-08-01T00:34:49;29.00;31.10
28087;DHT22;15392;48.912;8.380;2022-08-01T00:37:15;28.90;31.20
28087;DHT22;15392;48.912;8.380;2022-08-01T00:39:41;28.90;31.20
28087;DHT22;15392;48.912;8.380;2022-08-01T00:42:09;28.80;31.30
28087;DHT22;15392;48.912;8.380;2022-08-01T00:44:36;28.80;31.40
28087;DHT22;15392;48.912;8.380;2022-08-01T00:47:02;28.80;31.80
28087;DHT22;15392;48.912;8.380;2022-08-01T00:49:29;28.70;31.50
28087;DHT22;15392;48.912;8.380;2022-08-01T00:51:55;28.70;31.50
28087;DHT22;15392;48.912;8.380;2022-08-01T00:54:23;28.70;31.60
28087;DHT22;15392;48.912;8.380;2022-08-01T00:56:50;28.60;31.70
28087;DHT22;15392;48.912;8.380;2022-08-01T00:59:17;28.60;31.70
28087;DHT22;15392;48.912;8.380;2022-08-01T01:01:43;28.50;31.80
28087;DHT22;15392;48.912;8.380;2022-08-01T01:04:10;28.50;31.80
28087;DHT22;15392;48.912;8.380;2022-08-01T01:09:36;28.50;32.40
28087;DHT22;15392;48.912;8.380;2022-08-01T01:12:27;28.40;32.10
28087;DHT22;15392;48.912;8.380;2022-08-01T01:15:26;28.40;32.60
28087;DHT22;15392;48.912;8.380;2022-08-01T01:18:02;28.40;32.80
28087;DHT22;15392;48.912;8.380;2022-08-01T01:20:52;28.40;32.20
28087;DHT22;15392;48.912;8.380;2022-08-01T01:32:10;28.30;32.50
28087;DHT22;15392;48.912;8.380;2022-08-01T01:34:43;28.30;32.70
28087;DHT22;15392;48.912;8.380;2022-08-01T01:37:15;28.30;32.60
28087;DHT22;15392;48.912;8.380;2022-08-01T01:39:44;28.30;32.80
28087;DHT22;15392;48.912;8.380;2022-08-01T01:42:11;28.30;32.60
28087;DHT22;15392;48.912;8.380;2022-08-01T01:44:38;28.20;32.60
28087;DHT22;15392;48.912;8.380;2022-08-01T01:47:04;28.20;32.80
28087;DHT22;15392;48.912;8.380;2022-08-01T01:49:32;28.20;32.80
28087;DHT22;15392;48.912;8.380;2022-08-01T01:51:59;28.10;33.40
28087;DHT22;15392;48.912;8.380;2022-08-01T01:54:33;28.10;32.90
28087;DHT22;15392;48.912;8.380;2022-08-01T01:57:03;28.10;33.50
28087;DHT22;15392;48.912;8.380;2022-08-01T01:59:32;28.10;33.20
28087;DHT22;15392;48.912;8.380;2022-08-01T02:02:01;28.00;33.20
28087;DHT22;15392;48.912;8.380;2022-08-01T02:04:29;28.00;33.40
28087;DHT22;15392;48.912;8.380;2022-08-01T02:06:57;27.90;32.90
28087;DHT22;15392;48.912;8.380;2022-08-01T02:09:24;27.90;33.00
28087;DHT22;15392;48.912;8.380;2022-08-01T02:11:53;27.90;33.20
28087;DHT22;15392;48.912;8.380;2022-08-01T02:14:20;27.90;33.40
28087;DHT22;15392;48.912;8.380;2022-08-01T02:16:49;27.90;33.40
28087;DHT22;15392;48.912;8.380;2022-08-01T02:19:19;27.80;33.40
28087;DHT22;15392;48.912;8.380;2022-08-01T02:21:52;27.80;34.50
28087;DHT22;15392;48.912;8.380;2022-08-01T02:27:10;27.80;34.10
28087;DHT22;15392;48.912;8.380;2022-08-01T02:30:03;27.80;34.00
28087;DHT22;15392;48.912;8.380;2022-08-01T02:32:38;27.80;34.40
28087;DHT22;15392;48.912;8.380;2022-08-01T02:35:13;27.80;34.10
28087;DHT22;15392;48.912;8.380;2022-08-01T02:37:45;27.80;34.10
28087;DHT22;15392;48.912;8.380;2022-08-01T02:40:13;27.80;33.90
28087;DHT22;15392;48.912;8.380;2022-08-01T02:42:43;27.80;33.90
28087;DHT22;15392;48.912;8.380;2022-08-01T02:45:12;27.70;34.10
28087;DHT22;15392;48.912;8.380;2022-08-01T02:47:40;27.70;33.90
28087;DHT22;15392;48.912;8.380;2022-08-01T02:50:12;27.60;34.00
28087;DHT22;15392;48.912;8.380;2022-08-01T02:52:39;27.60;34.10
28087;DHT22;15392;48.912;8.380;2022-08-01T02:55:07;27.50;34.00
28087;DHT22;15392;48.912;8.380;2022-08-01T02:57:35;27.50;34.10
28087;DHT22;15392;48.912;8.380;2022-08-01T03:00:04;27.50;34.30
28087;DHT22;15392;48.912;8.380;2022-08-01T03:02:32;27.50;34.40
28087;DHT22;15392;48.912;8.380;2022-08-01T03:05:00;27.50;34.40
28087;DHT22;15392;48.912;8.380;2022-08-01T03:07:30;27.50;34.50
28087;DHT22;15392;48.912;8.380;2022-08-01T03:09:57;27.50;34.60
28087;DHT22;15392;48.912;8.380;2022-08-01T03:12:26;27.50;35.20
28087;DHT22;15392;48.912;8.380;2022-08-01T03:14:59;27.50;34.70
28087;DHT22;15392;48.912;8.380;2022-08-01T03:17:26;27.50;34.90
28087;DHT22;15392;48.912;8.380;2022-08-01T03:19:55;27.50;35.00
28087;DHT22;15392;48.912;8.380;2022-08-01T03:22:24;27.50;34.20
28087;DHT22;15392;48.912;8.380;2022-08-01T03:24:53;27.50;34.40
28087;DHT22;15392;48.912;8.380;2022-08-01T03:27:21;27.50;34.60
28087;DHT22;15392;48.912;8.380;2022-08-01T03:29:54;27.50;34.70
28087;DHT22;15392;48.912;8.380;2022-08-01T03:32:21;27.50;35.10
28087;DHT22;15392;48.912;8.380;2022-08-01T03:34:48;27.40;34.60
28087;DHT22;15392;48.912;8.380;2022-08-01T03:37:56;27.40;34.70
28087;DHT22;15392;48.912;8.380;2022-08-01T03:40:30;27.40;35.60
28087;DHT22;15392;48.912;8.380;2022-08-01T03:43:05;27.40;35.80
28087;DHT22;15392;48.912;8.380;2022-08-01T03:45:38;27.30;35.10
28087;DHT22;15392;48.912;8.380;2022-08-01T03:48:18;27.30;35.00
28087;DHT22;15392;48.912;8.380;2022-08-01T03:50:50;27.30;35.50
28087;DHT22;15392;48.912;8.380;2022-08-01T03:53:25;27.30;35.50
28087;DHT22;15392;48.912;8.380;2022-08-01T03:55:56;27.30;35.40
28087;DHT22;15392;48.912;8.380;2022-08-01T03:58:22;27.30;35.10
28087;DHT22;15392;48.912;8.380;2022-08-01T04:00:52;27.30;35.10
28087;DHT22;15392;48.912;8.380;2022-08-01T04:03:17;27.30;35.20
28087;DHT22;15392;48.912;8.380;2022-08-01T04:05:47;27.30;35.10
28087;DHT22;15392;48.912;8.380;2022-08-01T04:08:13;27.20;35.20
28087;DHT22;15392;48.912;8.380;2022-08-01T04:10:39;27.20;35.10
28087;DHT22;15392;48.912;8.380;2022-08-01T04:13:05;27.20;35.30
28087;DHT22;15392;48.912;8.380;2022-08-01T04:15:40;27.10;35.30
28087;DHT22;15392;48.912;8.380;2022-08-01T04:18:15;27.10;35.40
28087;DHT22;15392;48.912;8.380;2022-08-01T04:20:40;27.10;35.50
28087;DHT22;15392;48.912;8.380;2022-08-01T04:23:07;27.20;35.60
28087;DHT22;15392;48.912;8.380;2022-08-01T04:25:46;27.10;35.60
28087;DHT22;15392;48.912;8.380;2022-08-01T04:28:17;27.10;35.60
28087;DHT22;15392;48.912;8.380;2022-08-01T04:30:50;27.10;36.00
28087;DHT22;15392;48.912;8.380;2022-08-01T04:33:28;27.00;35.70
28087;DHT22;15392;48.912;8.380;2022-08-01T04:35:56;27.00;36.30
28087;DHT22;15392;48.912;8.380;2022-08-01T04:38:34;27.00;36.00
28087;DHT22;15392;48.912;8.380;2022-08-01T04:41:12;27.00;36.40
28087;DHT22;15392;48.912;8.380;2022-08-01T04:43:39;27.00;36.00
28087;DHT22;15392;48.912;8.380;2022-08-01T04:46:10;26.90;36.00
28087;DHT22;15392;48.912;8.380;2022-08-01T04:48:39;26.90;36.40
28087;DHT22;15392;48.912;8.380;2022-08-01T04:51:14;26.90;36.10
28087;DHT22;15392;48.912;8.380;2022-08-01T04:53:45;26.90;36.80
28087;DHT22;15392;48.912;8.380;2022-08-01T04:56:11;26.90;36.60
28087;DHT22;15392;48.912;8.380;2022-08-01T04:58:42;26.90;36.20
28087;DHT22;15392;48.912;8.380;2022-08-01T05:01:08;26.90;36.20
28087;DHT22;15392;48.912;8.380;2022-08-01T05:03:35;26.80;36.40
28087;DHT22;15392;48.912;8.380;2022-08-01T05:06:04;26.80;36.40
28087;DHT22;15392;48.912;8.380;2022-08-01T05:08:31;26.80;36.90
28087;DHT22;15392;48.912;8.380;2022-08-01T05:10:57;26.90;36.60
28087;DHT22;15392;48.912;8.380;2022-08-01T05:13:23;26.80;36.60
28087;DHT22;15392;48.912;8.380;2022-08-01T05:15:49;26.90;36.80
28087;DHT22;15392;48.912;8.380;2022-08-01T05:18:14;26.90;36.80
28087;DHT22;15392;48.912;8.380;2022-08-01T05:20:40;26.90;36.80
28087;DHT22;15392;48.912;8.380;2022-08-01T05:23:07;26.90;36.80
28087;DHT22;15392;48.912;8.380;2022-08-01T05:25:32;26.90;36.80
28087;DHT22;15392;48.912;8.380;2022-08-01T05:27:58;27.00;36.90
28087;DHT22;15392;48.912;8.380;2022-08-01T05:30:24;27.00;36.90
28087;DHT22;15392;48.912;8.380;2022-08-01T05:32:50;27.00;36.90
28087;DHT22;15392;48.912;8.380;2022-08-01T05:35:16;27.00;36.80
28087;DHT22;15392;48.912;8.380;2022-08-01T05:37:42;27.00;36.90
28087;DHT22;15392;48.912;8.380;2022-08-01T05:40:08;27.10;36.90
28087;DHT22;15392;48.912;8.380;2022-08-01T05:42:34;27.10;36.90
28087;DHT22;15392;48.912;8.380;2022-08-01T05:45:00;27.10;36.90
28087;DHT22;15392;48.912;8.380;2022-08-01T05:47:26;27.20;37.00
28087;DHT22;15392;48.912;8.380;2022-08-01T05:49:52;27.20;36.90
28087;DHT22;15392;48.912;8.380;2022-08-01T05:52:17;27.20;36.90
28087;DHT22;15392;48.912;8.380;2022-08-01T05:54:43;27.20;37.00
28087;DHT22;15392;48.912;8.380;2022-08-01T05:57:09;27.30;37.00
28087;DHT22;15392;48.912;8.380;2022-08-01T05:59:35;27.30;36.90
28087;DHT22;15392;48.912;8.380;2022-08-01T06:02:04;27.30;37.00
28087;DHT22;15392;48.912;8.380;2022-08-01T06:04:29;27.40;37.10
28087;DHT22;15392;48.912;8.380;2022-08-01T06:06:55;27.40;37.00
28087;DHT22;15392;48.912;8.380;2022-08-01T06:09:21;27.40;37.00
28087;DHT22;15392;48.912;8.380;2022-08-01T06:11:47;27.50;37.20
28087;DHT22;15392;48.912;8.380;2022-08-01T06:14:13;27.50;37.20
28087;DHT22;15392;48.912;8.380;2022-08-01T06:16:38;27.60;37.10
28087;DHT22;15392;48.912;8.380;2022-08-01T06:19:04;27.60;37.20
28087;DHT22;15392;48.912;8.380;2022-08-01T06:21:30;27.60;37.10
28087;DHT22;15392;48.912;8.380;2022-08-01T06:23:56;27.70;37.20
28087;DHT22;15392;48.912;8.380;2022-08-01T06:26:21;27.70;37.10
28087;DHT22;15392;48.912;8.380;2022-08-01T06:28:47;27.70;37.20
28087;DHT22;15392;48.912;8.380;2022-08-01T06:31:13;27.80;37.20
28087;DHT22;15392;48.912;8.380;2022-08-01T06:33:41;27.80;37.10
28087;DHT22;15392;48.912;8.380;2022-08-01T06:36:07;27.90;37.10
28087;DHT22;15392;48.912;8.380;2022-08-01T06:38:33;27.90;37.20
28087;DHT22;15392;48.912;8.380;2022-08-01T06:40:58;27.90;37.10
28087;DHT22;15392;48.912;8.380;2022-08-01T06:43:24;28.00;37.30
28087;DHT22;15392;48.912;8.380;2022-08-01T06:45:50;28.00;37.20
28087;DHT22;15392;48.912;8.380;2022-08-01T06:48:16;28.00;37.10
28087;DHT22;15392;48.912;8.380;2022-08-01T06:50:41;28.00;37.00
28087;DHT22;15392;48.912;8.380;2022-08-01T06:53:07;28.10;37.20
28087;DHT22;15392;48.912;8.380;2022-08-01T06:55:33;28.10;37.20
28087;DHT22;15392;48.912;8.380;2022-08-01T06:57:59;28.10;37.20
28087;DHT22;15392;48.912;8.380;2022-08-01T07:00:28;28.20;37.30
28087;DHT22;15392;48.912;8.380;2022-08-01T07:02:55;28.20;37.50
28087;DHT22;15392;48.912;8.380;2022-08-01T07:05:25;28.20;37.30
28087;DHT22;15392;48.912;8.380;2022-08-01T07:07:51;28.20;37.20
28087;DHT22;15392;48.912;8.380;2022-08-01T07:10:17;28.30;37.40
28087;DHT22;15392;48.912;8.380;2022-08-01T07:12:43;28.30;37.20
28087;DHT22;15392;48.912;8.380;2022-08-01T07:15:10;28.30;37.40
28087;DHT22;15392;48.912;8.380;2022-08-01T07:17:41;28.30;37.30
28087;DHT22;15392;48.912;8.380;2022-08-01T07:20:12;28.30;37.60
28087;DHT22;15392;48.912;8.380;2022-08-01T07:22:38;28.40;38.30
28087;DHT22;15392;48.912;8.380;2022-08-01T07:25:05;28.30;37.40
28087;DHT22;15392;48.912;8.380;2022-08-01T07:27:32;28.30;37.40
28087;DHT22;15392;48.912;8.380;2022-08-01T07:29:58;28.30;37.30
28087;DHT22;15392;48.912;8.380;2022-08-01T07:32:24;28.30;37.40
28087;DHT22;15392;48.912;8.380;2022-08-01T07:34:50;28.30;37.40
28087;DHT22;15392;48.912;8.380;2022-08-01T07:37:16;28.40;37.50
28087;DHT22;15392;48.912;8.380;2022-08-01T07:39:43;28.40;37.60
28087;DHT22;15392;48.912;8.380;2022-08-01T07:42:09;28.40;37.80
28087;DHT22;15392;48.912;8.380;2022-08-01T07:44:35;28.40;37.60
28087;DHT22;15392;48.912;8.380;2022-08-01T07:47:01;28.40;37.60
28087;DHT22;15392;48.912;8.380;2022-08-01T07:49:27;28.40;37.70
28087;DHT22;15392;48.912;8.380;2022-08-01T07:51:53;28.40;37.70
28087;DHT22;15392;48.912;8.380;2022-08-01T07:54:22;28.40;37.90
28087;DHT22;15392;48.912;8.380;2022-08-01T07:56:50;28.50;37.90
28087;DHT22;15392;48.912;8.380;2022-08-01T07:59:16;28.50;37.90
28087;DHT22;15392;48.912;8.380;2022-08-01T08:01:48;28.50;38.00
28087;DHT22;15392;48.912;8.380;2022-08-01T08:04:16;28.60;38.00
28087;DHT22;15392;48.912;8.380;2022-08-01T08:06:42;28.70;38.00
28087;DHT22;15392;48.912;8.380;2022-08-01T08:09:08;28.70;38.00
28087;DHT22;15392;48.912;8.380;2022-08-01T08:11:34;28.70;37.90
28087;DHT22;15392;48.912;8.380;2022-08-01T08:14:00;28.80;37.90
28087;DHT22;15392;48.912;8.380;2022-08-01T08:16:29;28.90;37.90
28087;DHT22;15392;48.912;8.380;2022-08-01T08:18:55;28.90;38.20
28087;DHT22;15392;48.912;8.380;2022-08-01T08:21:21;29.00;37.90
28087;DHT22;15392;48.912;8.380;2022-08-01T08:23:47;29.00;37.80
28087;DHT22;15392;48.912;8.380;2022-08-01T08:26:31;29.10;37.80
28087;DHT22;15392;48.912;8.380;2022-08-01T08:28:57;29.10;37.70
28087;DHT22;15392;48.912;8.380;2022-08-01T08:31:23;29.20;37.80
28087;DHT22;15392;48.912;8.380;2022-08-01T08:33:49;29.30;37.80
28087;DHT22;15392;48.912;8.380;2022-08-01T08:36:15;29.30;37.70
28087;DHT22;15392;48.912;8.380;2022-08-01T08:38:41;29.40;37.80
28087;DHT22;15392;48.912;8.380;2022-08-01T08:41:08;29.50;37.80
28087;DHT22;15392;48.912;8.380;2022-08-01T08:43:35;29.50;37.60
28087;DHT22;15392;48.912;8.380;2022-08-01T08:46:01;29.60;37.60
28087;DHT22;15392;48.912;8.380;2022-08-01T08:48:28;29.60;37.70
28087;DHT22;15392;48.912;8.380;2022-08-01T08:50:55;29.70;37.60
28087;DHT22;15392;48.912;8.380;2022-08-01T08:53:23;29.80;37.50
28087;DHT22;15392;48.912;8.380;2022-08-01T08:55:50;29.80;37.40
28087;DHT22;15392;48.912;8.380;2022-08-01T08:58:21;29.90;37.40
28087;DHT22;15392;48.912;8.380;2022-08-01T09:00:47;30.00;37.40
28087;DHT22;15392;48.912;8.380;2022-08-01T09:03:13;30.00;38.00
28087;DHT22;15392;48.912;8.380;2022-08-01T09:05:39;30.10;37.50
28087;DHT22;15392;48.912;8.380;2022-08-01T09:08:07;30.10;37.40
28087;DHT22;15392;48.912;8.380;2022-08-01T09:10:33;30.20;37.30
28087;DHT22;15392;48.912;8.380;2022-08-01T09:13:10;30.20;37.20
28087;DHT22;15392;48.912;8.380;2022-08-01T09:15:40;30.30;37.50
28087;DHT22;15392;48.912;8.380;2022-08-01T09:18:31;30.30;37.00
28087;DHT22;15392;48.912;8.380;2022-08-01T09:23:43;30.40;37.40
28087;DHT22;15392;48.912;8.380;2022-08-01T09:26:15;30.50;37.00
28087;DHT22;15392;48.912;8.380;2022-08-01T09:28:47;30.50;36.90
28087;DHT22;15392;48.912;8.380;2022-08-01T09:31:15;30.60;36.90
28087;DHT22;15392;48.912;8.380;2022-08-01T09:34:00;30.60;36.70
28087;DHT22;15392;48.912;8.380;2022-08-01T09:36:46;30.60;37.40
28087;DHT22;15392;48.912;8.380;2022-08-01T09:39:23;30.70;37.30
28087;DHT22;15392;48.912;8.380;2022-08-01T09:41:54;30.70;36.70
28087;DHT22;15392;48.912;8.380;2022-08-01T09:44:42;30.80;36.70
28087;DHT22;15392;48.912;8.380;2022-08-01T09:47:10;30.80;37.00
28087;DHT22;15392;48.912;8.380;2022-08-01T09:49:38;30.90;36.50
28087;DHT22;15392;48.912;8.380;2022-08-01T09:52:17;30.90;36.50
28087;DHT22;15392;48.912;8.380;2022-08-01T09:54:58;31.00;37.00
28087;DHT22;15392;48.912;8.380;2022-08-01T09:57:27;31.00;36.70
28087;DHT22;15392;48.912;8.380;2022-08-01T09:59:58;31.00;36.30
28087;DHT22;15392;48.912;8.380;2022-08-01T10:02:36;31.10;36.30
28087;DHT22;15392;48.912;8.380;2022-08-01T10:05:05;31.10;36.60
28087;DHT22;15392;48.912;8.380;2022-08-01T10:07:32;31.20;36.40
28087;DHT22;15392;48.912;8.380;2022-08-01T10:10:13;31.20;36.50
28087;DHT22;15392;48.912;8.380;2022-08-01T10:12:42;31.20;36.50
28087;DHT22;15392;48.912;8.380;2022-08-01T10:15:08;31.20;36.10
28087;DHT22;15392;48.912;8.380;2022-08-01T10:17:38;31.30;36.20
28087;DHT22;15392;48.912;8.380;2022-08-01T10:20:05;31.30;36.30
28087;DHT22;15392;48.912;8.380;2022-08-01T10:22:33;31.40;36.10
28087;DHT22;15392;48.912;8.380;2022-08-01T10:25:03;31.40;36.10
28087;DHT22;15392;48.912;8.380;2022-08-01T10:27:32;31.40;36.10
28087;DHT22;15392;48.912;8.380;2022-08-01T10:30:01;31.40;36.10
28087;DHT22;15392;48.912;8.380;2022-08-01T10:32:31;31.40;36.00
28087;DHT22;15392;48.912;8.380;2022-08-01T10:34:58;31.40;36.00
28087;DHT22;15392;48.912;8.380;2022-08-01T10:37:25;31.30;36.10
28087;DHT22;15392;48.912;8.380;2022-08-01T10:39:51;31.30;36.20
28087;DHT22;15392;48.912;8.380;2022-08-01T10:42:18;31.30;36.10
28087;DHT22;15392;48.912;8.380;2022-08-01T10:44:45;31.40;36.10
28087;DHT22;15392;48.912;8.380;2022-08-01T10:47:15;31.30;36.00
28087;DHT22;15392;48.912;8.380;2022-08-01T10:49:45;31.40;36.10
28087;DHT22;15392;48.912;8.380;2022-08-01T10:52:15;31.40;36.10
28087;DHT22;15392;48.912;8.380;2022-08-01T10:54:44;31.40;36.10
28087;DHT22;15392;48.912;8.380;2022-08-01T10:57:11;31.40;36.10
28087;DHT22;15392;48.912;8.380;2022-08-01T10:59:48;31.40;36.10
28087;DHT22;15392;48.912;8.380;2022-08-01T11:02:27;31.50;36.40
28087;DHT22;15392;48.912;8.380;2022-08-01T11:07:52;31.50;36.20
28087;DHT22;15392;48.912;8.380;2022-08-01T11:12:50;31.60;36.10
28087;DHT22;15392;48.912;8.380;2022-08-01T11:15:18;31.70;35.70
28087;DHT22;15392;48.912;8.380;2022-08-01T11:17:55;31.70;35.60
28087;DHT22;15392;48.912;8.380;2022-08-01T11:26:06;31.90;35.70
28087;DHT22;15392;48.912;8.380;2022-08-01T11:30:45;31.90;35.40
28087;DHT22;15392;48.912;8.380;2022-08-01T11:33:12;31.90;35.30
28087;DHT22;15392;48.912;8.380;2022-08-01T11:36:18;31.90;35.10
28087;DHT22;15392;48.912;8.380;2022-08-01T11:41:26;32.00;35.10
28087;DHT22;15392;48.912;8.380;2022-08-01T11:46:47;32.10;34.80
28087;DHT22;15392;48.912;8.380;2022-08-01T11:52:07;32.20;34.80
28087;DHT22;15392;48.912;8.380;2022-08-01T11:54:39;32.20;35.00
28087;DHT22;15392;48.912;8.380;2022-08-01T11:57:10;32.20;34.70
28087;DHT22;15392;48.912;8.380;2022-08-01T11:59:53;32.30;34.60
28087;DHT22;15392;48.912;8.380;2022-08-01T12:02:24;32.30;34.50
28087;DHT22;15392;48.912;8.380;2022-08-01T12:07:27;32.40;34.40
28087;DHT22;15392;48.912;8.380;2022-08-01T12:12:53;32.40;34.20
28087;DHT22;15392;48.912;8.380;2022-08-01T12:15:23;32.50;34.30
28087;DHT22;15392;48.912;8.380;2022-08-01T12:17:58;32.50;34.20
28087;DHT22;15392;48.912;8.380;2022-08-01T12:20:36;32.50;33.80
28087;DHT22;15392;48.912;8.380;2022-08-01T12:23:07;32.60;34.20
28087;DHT22;15392;48.912;8.380;2022-08-01T12:25:35;32.60;34.30
28087;DHT22;15392;48.912;8.380;2022-08-01T12:28:03;32.60;34.20
28087;DHT22;15392;48.912;8.380;2022-08-01T12:30:35;32.70;34.20
28087;DHT22;15392;48.912;8.380;2022-08-01T12:33:03;32.70;34.10
28087;DHT22;15392;48.912;8.380;2022-08-01T12:35:31;32.80;34.20
28087;DHT22;15392;48.912;8.380;2022-08-01T12:38:01;32.80;34.00
28087;DHT22;15392;48.912;8.380;2022-08-01T12:40:37;32.80;34.10
28087;DHT22;15392;48.912;8.380;2022-08-01T12:43:08;32.90;34.20
28087;DHT22;15392;48.912;8.380;2022-08-01T12:45:40;33.00;34.30
28087;DHT22;15392;48.912;8.380;2022-08-01T12:48:12;33.10;34.20
28087;DHT22;15392;48.912;8.380;2022-08-01T12:50:48;33.20;34.30
28087;DHT22;15392;48.912;8.380;2022-08-01T12:53:15;33.30;34.20
28087;DHT22;15392;48.912;8.380;2022-08-01T12:58:13;33.40;33.80
28087;DHT22;15392;48.912;8.380;2022-08-01T13:00:42;33.40;33.90
28087;DHT22;15392;48.912;8.380;2022-08-01T13:03:15;33.50;33.90
28087;DHT22;15392;48.912;8.380;2022-08-01T13:05:46;33.50;33.90
28087;DHT22;15392;48.912;8.380;2022-08-01T13:08:39;33.70;33.80
28087;DHT22;15392;48.912;8.380;2022-08-01T13:11:06;33.70;33.60
28087;DHT22;15392;48.912;8.380;2022-08-01T13:16:12;33.90;33.40
28087;DHT22;15392;48.912;8.380;2022-08-01T13:18:39;34.00;33.20
28087;DHT22;15392;48.912;8.380;2022-08-01T13:21:24;34.10;33.50
28087;DHT22;15392;48.912;8.380;2022-08-01T13:24:08;34.30;33.10
28087;DHT22;15392;48.912;8.380;2022-08-01T13:26:53;34.40;32.50
28087;DHT22;15392;48.912;8.380;2022-08-01T13:29:32;34.40;32.50
28087;DHT22;15392;48.912;8.380;2022-08-01T13:32:11;34.50;32.30
28087;DHT22;15392;48.912;8.380;2022-08-01T13:34:46;34.50;32.60
28087;DHT22;15392;48.912;8.380;2022-08-01T13:37:12;34.50;32.50
28087;DHT22;15392;48.912;8.380;2022-08-01T13:39:38;34.50;32.40
28087;DHT22;15392;48.912;8.380;2022-08-01T13:42:15;34.50;32.40
28087;DHT22;15392;48.912;8.380;2022-08-01T13:44:42;34.40;32.40
28087;DHT22;15392;48.912;8.380;2022-08-01T13:47:11;34.40;32.50
28087;DHT22;15392;48.912;8.380;2022-08-01T13:49:36;34.30;32.40
28087;DHT22;15392;48.912;8.380;2022-08-01T13:52:03;34.30;32.50
28087;DHT22;15392;48.912;8.380;2022-08-01T13:54:32;34.30;32.50
28087;DHT22;15392;48.912;8.380;2022-08-01T13:57:01;34.30;32.50
28087;DHT22;15392;48.912;8.380;2022-08-01T13:59:28;34.30;32.40
28087;DHT22;15392;48.912;8.380;2022-08-01T14:01:54;34.30;32.50
28087;DHT22;15392;48.912;8.380;2022-08-01T14:04:20;34.30;32.60
28087;DHT22;15392;48.912;8.380;2022-08-01T14:06:46;34.30;32.50
28087;DHT22;15392;48.912;8.380;2022-08-01T14:09:12;34.30;32.20
28087;DHT22;15392;48.912;8.380;2022-08-01T14:11:42;34.30;32.30
28087;DHT22;15392;48.912;8.380;2022-08-01T14:14:12;34.20;32.40
28087;DHT22;15392;48.912;8.380;2022-08-01T14:16:38;34.20;32.40
28087;DHT22;15392;48.912;8.380;2022-08-01T14:19:04;34.20;32.40
28087;DHT22;15392;48.912;8.380;2022-08-01T14:21:30;34.30;32.30
28087;DHT22;15392;48.912;8.380;2022-08-01T14:23:56;34.30;32.20
28087;DHT22;15392;48.912;8.380;2022-08-01T14:26:23;34.30;32.20
28087;DHT22;15392;48.912;8.380;2022-08-01T14:28:48;34.30;32.50
28087;DHT22;15392;48.912;8.380;2022-08-01T14:31:14;34.30;32.30
28087;DHT22;15392;48.912;8.380;2022-08-01T14:33:43;34.30;32.30
28087;DHT22;15392;48.912;8.380;2022-08-01T14:36:12;34.30;32.20
28087;DHT22;15392;48.912;8.380;2022-08-01T14:38:38;34.30;32.10
28087;DHT22;15392;48.912;8.380;2022-08-01T14:41:04;34.30;32.10
28087;DHT22;15392;48.912;8.380;2022-08-01T14:43:29;34.30;32.20
28087;DHT22;15392;48.912;8.380;2022-08-01T14:45:57;34.30;32.20
28087;DHT22;15392;48.912;8.380;2022-08-01T14:48:23;34.30;32.20
28087;DHT22;15392;48.912;8.380;2022-08-01T14:50:48;34.30;32.20
28087;DHT22;15392;48.912;8.380;2022-08-01T14:53:16;34.30;32.20
28087;DHT22;15392;48.912;8.380;2022-08-01T14:55:43;34.30;32.00
28087;DHT22;15392;48.912;8.380;2022-08-01T14:58:11;34.30;31.90
28087;DHT22;15392;48.912;8.380;2022-08-01T15:00:37;34.20;31.90
28087;DHT22;15392;48.912;8.380;2022-08-01T15:03:03;34.20;32.00
28087;DHT22;15392;48.912;8.380;2022-08-01T15:05:29;34.20;32.00
28087;DHT22;15392;48.912;8.380;2022-08-01T15:07:56;34.20;32.00
28087;DHT22;15392;48.912;8.380;2022-08-01T15:10:22;34.20;32.10
28087;DHT22;15392;48.912;8.380;2022-08-01T15:12:48;34.20;32.10
28087;DHT22;15392;48.912;8.380;2022-08-01T15:15:14;34.20;32.10
28087;DHT22;15392;48.912;8.380;2022-08-01T15:17:40;34.20;32.20
28087;DHT22;15392;48.912;8.380;2022-08-01T15:20:06;34.10;32.20
28087;DHT22;15392;48.912;8.380;2022-08-01T15:22:33;34.10;32.10
28087;DHT22;15392;48.912;8.380;2022-08-01T15:25:01;34.20;32.20
28087;DHT22;15392;48.912;8.380;2022-08-01T15:27:28;34.10;32.10
28087;DHT22;15392;48.912;8.380;2022-08-01T15:29:55;34.20;32.30
28087;DHT22;15392;48.912;8.380;2022-08-01T15:32:22;34.20;32.30
28087;DHT22;15392;48.912;8.380;2022-08-01T15:34:51;34.20;32.30
28087;DHT22;15392;48.912;8.380;2022-08-01T15:37:17;34.10;32.30
28087;DHT22;15392;48.912;8.380;2022-08-01T15:39:43;34.10;32.20
28087;DHT22;15392;48.912;8.380;2022-08-01T15:42:13;34.10;32.20
28087;DHT22;15392;48.912;8.380;2022-08-01T15:44:41;34.10;32.30
28087;DHT22;15392;48.912;8.380;2022-08-01T15:47:08;34.10;32.30
28087;DHT22;15392;48.912;8.380;2022-08-01T15:49:42;34.10;32.60
28087;DHT22;15392;48.912;8.380;2022-08-01T15:52:08;34.10;32.40
28087;DHT22;15392;48.912;8.380;2022-08-01T15:54:35;34.10;32.30
28087;DHT22;15392;48.912;8.380;2022-08-01T15:57:01;34.10;32.40
28087;DHT22;15392;48.912;8.380;2022-08-01T15:59:27;34.00;32.30
28087;DHT22;15392;48.912;8.380;2022-08-01T16:01:57;34.00;32.40
28087;DHT22;15392;48.912;8.380;2022-08-01T16:04:25;34.00;32.30
28087;DHT22;15392;48.912;8.380;2022-08-01T16:06:51;33.90;32.30
28087;DHT22;15392;48.912;8.380;2022-08-01T16:09:20;33.90;32.40
28087;DHT22;15392;48.912;8.380;2022-08-01T16:11:46;33.90;32.40
28087;DHT22;15392;48.912;8.380;2022-08-01T16:14:12;33.90;32.40
28087;DHT22;15392;48.912;8.380;2022-08-01T16:16:38;33.80;32.50
28087;DHT22;15392;48.912;8.380;2022-08-01T16:19:04;33.80;32.50
28087;DHT22;15392;48.912;8.380;2022-08-01T16:21:30;33.70;32.40
28087;DHT22;15392;48.912;8.380;2022-08-01T16:23:56;33.70;32.50
28087;DHT22;15392;48.912;8.380;2022-08-01T16:26:22;33.70;32.50
28087;DHT22;15392;48.912;8.380;2022-08-01T16:28:47;33.70;32.50
28087;DHT22;15392;48.912;8.380;2022-08-01T16:31:18;33.60;32.50